Time;durP1;ratioP1;P1;durP2;ratioP2;P2;SDS_P1;SDS_P2;PMS_P1;PMS_P2;Temp;Humidity;BMP_temperature;BMP_pressure;BME280_temperature;BME280_humidity;BME280_pressure;Samples;Min_cycle;Max_cycle;Signal;HPM_P1;HPM_P2
2021/01/24 00:19:44;;;;;;;157.17;149.63;;;2.80;99.90;;;;;;6097008;23;20928;-87
2021/01/24 00:22:40;;;;;;;173.00;164.70;;;2.80;99.90;;;;;;6149925;23;20411;-85
2021/01/24 00:25:24;;;;;;;176.27;168.43;;;2.70;99.90;;;;;;6283802;22;20453;-87
2021/01/24 00:31:11;;;;;;;199.47;190.67;;;2.70;99.90;;;;;;6274128;22;20920;-88
2021/01/24 00:33:46;;;;;;;158.35;150.90;;;2.70;99.90;;;;;;6268199;22;20429;-87
2021/01/24 00:36:20;;;;;;;161.13;153.63;;;2.60;99.90;;;;;;6287671;22;20249;-86
2021/01/24 00:41:46;;;;;;;;;;;;;;;;;;;;;
2021/01/24 00:44:21;;;;;;;128.17;122.20;;;2.30;99.90;;;;;;6264565;22;20188;-87
2021/01/24 00:47:07;;;;;;;149.67;142.73;;;2.10;99.90;;;;;;6288695;22;20413;-87
2021/01/24 00:50:05;;;;;;;132.87;127.07;;;2.10;99.90;;;;;;6287026;22;20928;-88
2021/01/24 00:52:47;;;;;;;124.03;118.03;;;1.80;99.90;;;;;;6274358;22;20475;-88
2021/01/24 00:55:26;;;;;;;122.73;117.27;;;1.60;99.90;;;;;;6289336;22;20489;-88
2021/01/24 00:58:05;;;;;;;136.23;129.33;;;1.30;99.90;;;;;;6288676;22;20414;-87
2021/01/24 01:00:50;;;;;;;146.60;139.97;;;1.10;99.90;;;;;;6288349;22;20402;-88
2021/01/24 01:03:18;;;;;;;172.27;163.82;;;1.00;99.90;;;;;;6287972;22;20398;-88
2021/01/24 01:06:43;;;;;;;190.83;180.83;;;1.00;99.90;;;;;;6289017;22;20240;-85
2021/01/24 01:09:21;;;;;;;158.97;151.40;;;1.00;99.90;;;;;;6319327;22;20407;-87
2021/01/24 01:12:16;;;;;;;164.38;156.10;;;1.00;99.90;;;;;;6318925;22;20409;-87
2021/01/24 01:14:50;;;;;;;161.67;154.30;;;1.00;99.90;;;;;;6298926;22;20502;-86
2021/01/24 01:17:22;;;;;;;188.15;178.70;;;0.90;99.90;;;;;;6318602;22;20893;-86
2021/01/24 01:19:53;;;;;;;192.70;183.90;;;0.90;99.90;;;;;;6317482;22;20156;-87
2021/01/24 01:29:02;;;;;;;;;;;;;;;;;;;;;
2021/01/24 01:35:33;;;;;;;224.53;213.03;;;0.80;99.90;;;;;;6208411;22;20408;-89
2021/01/24 01:38:36;;;;;;;208.75;199.10;;;0.80;99.90;;;;;;6148042;23;20424;-88
2021/01/24 01:41:21;;;;;;;219.53;207.50;;;0.70;99.90;;;;;;6223957;23;20157;-88
2021/01/24 01:44:28;;;;;;;226.25;214.15;;;0.70;99.90;;;;;;6223536;23;20459;-90
2021/01/24 01:47:32;;;;;;;;;;;;;;;;;;;;;
2021/01/24 01:50:41;;;;;;;202.00;190.40;;;0.70;99.90;;;;;;6201484;22;20178;-88
2021/01/24 03:23:51;;;;;;;159.45;152.80;;;0.60;99.90;;;;;;5924603;24;20955;-84
2021/01/24 03:26:30;;;;;;;166.07;158.55;;;0.60;99.90;;;;;;6017464;23;20231;-84
2021/01/24 03:29:10;;;;;;;167.50;160.23;;;0.60;99.90;;;;;;6008378;23;20173;-84
2021/01/24 03:31:56;;;;;;;;;;;;;;;;;;;;;
2021/01/24 03:41:08;;;;;;;166.67;158.83;;;0.60;99.90;;;;;;6152576;23;20207;-84
2021/01/24 03:43:38;;;;;;;163.33;156.00;;;0.60;99.90;;;;;;6212640;23;20435;-84
2021/01/24 03:46:11;;;;;;;173.88;165.38;;;0.70;99.90;;;;;;6294443;22;20442;-84
2021/01/24 03:48:54;;;;;;;;;;;;;;;;;;;;;
2021/01/24 03:51:47;;;;;;;;;;;;;;;;;;;;;
2021/01/24 03:54:13;;;;;;;171.97;163.57;;;0.60;99.90;;;;;;6317953;22;20404;-82
2021/01/24 03:56:48;;;;;;;190.93;181.80;;;0.60;99.90;;;;;;6307419;22;20402;-81
2021/01/24 03:59:16;;;;;;;175.87;167.07;;;0.60;99.90;;;;;;6317120;22;20412;-83
2021/01/24 04:01:44;;;;;;;161.57;153.35;;;0.60;99.90;;;;;;6307100;22;20397;-83
2021/01/24 04:04:14;;;;;;;174.07;165.27;;;0.60;99.90;;;;;;6315693;22;20173;-83
2021/01/24 04:06:47;;;;;;;167.37;159.50;;;0.60;99.90;;;;;;6306977;22;20457;-82
2021/01/24 04:09:19;;;;;;;165.63;158.03;;;0.60;99.90;;;;;;6317763;22;20413;-83
2021/01/24 04:11:53;;;;;;;175.33;166.97;;;0.60;99.90;;;;;;6317864;22;20429;-82
2021/01/24 04:14:44;;;;;;;175.80;167.57;;;0.60;99.90;;;;;;6317476;22;20727;-83
2021/01/24 04:17:11;;;;;;;180.47;172.13;;;0.70;99.90;;;;;;6307212;22;20402;-82
2021/01/24 04:22:40;;;;;;;168.60;161.50;;;0.70;99.90;;;;;;6310211;22;20810;-83
2021/01/24 04:31:27;;;;;;;;;;;;;;;;;;;;;
2021/01/24 04:33:53;;;;;;;173.93;164.33;;;0.70;99.90;;;;;;6192338;23;20738;-83
2021/01/24 04:36:21;;;;;;;180.57;169.63;;;0.60;99.90;;;;;;6181127;23;20525;-83
2021/01/24 04:38:48;;;;;;;175.03;164.80;;;0.60;99.90;;;;;;6192313;23;20448;-83
2021/01/24 04:41:14;;;;;;;164.30;154.07;;;0.50;99.90;;;;;;6296859;22;20497;-82
2021/01/24 04:43:41;;;;;;;165.83;157.07;;;0.60;99.90;;;;;;6307171;22;20397;-83
2021/01/24 04:46:09;;;;;;;176.57;165.53;;;0.60;99.90;;;;;;6306813;22;20515;-82
2021/01/24 04:48:41;;;;;;;174.73;165.23;;;0.70;99.90;;;;;;6307287;22;20405;-82
2021/01/24 04:51:09;;;;;;;175.97;165.80;;;0.70;99.90;;;;;;6307176;22;20429;-82
2021/01/24 04:53:37;;;;;;;164.27;153.27;;;0.60;99.90;;;;;;6309234;22;20402;-82
2021/01/24 04:56:06;;;;;;;170.20;159.93;;;0.60;99.90;;;;;;6319286;22;20162;-82
2021/01/24 04:58:33;;;;;;;180.10;168.57;;;0.60;99.90;;;;;;6308829;22;20401;-81
2021/01/24 05:00:59;;;;;;;184.33;171.63;;;0.60;99.90;;;;;;6309006;22;20408;-82
2021/01/24 05:03:26;;;;;;;179.37;167.80;;;0.70;99.90;;;;;;6319132;22;20407;-83
2021/01/24 05:09:10;;;;;;;191.10;176.00;;;0.60;99.90;;;;;;6229673;22;20424;-80
2021/01/24 05:12:24;;;;;;;191.73;177.73;;;0.60;99.90;;;;;;6319182;22;20408;-84
2021/01/24 05:15:09;;;;;;;198.80;183.50;;;0.60;99.90;;;;;;6046074;23;20752;-85
2021/01/24 05:17:59;;;;;;;202.77;187.93;;;0.70;99.90;;;;;;6138180;23;20413;-84
2021/01/24 05:34:28;;;;;;;216.80;201.43;;;0.60;99.90;;;;;;6119107;23;21055;-83
2021/01/24 05:37:03;;;;;;;189.43;176.20;;;0.70;99.90;;;;;;6254578;22;20491;-88
2021/01/24 05:39:55;;;;;;;194.68;178.43;;;0.60;99.90;;;;;;6318696;22;20458;-84
2021/01/24 05:42:31;;;;;;;192.60;176.27;;;0.70;99.90;;;;;;6318532;22;20183;-84
2021/01/24 05:45:33;;;;;;;;;;;;;;;;;;;;;
2021/01/24 05:57:10;;;;;;;165.40;149.60;;;0.60;99.90;;;;;;6267830;22;20655;-84
2021/01/24 06:02:51;;;;;;;144.15;135.00;;;0.60;99.90;;;;;;6231943;22;20216;-86
2021/01/24 06:05:18;;;;;;;185.13;165.40;;;0.60;99.90;;;;;;6286391;22;20211;-86
2021/01/24 06:08:03;;;;;;;217.77;176.07;;;0.60;99.90;;;;;;6287811;22;20957;-88
2021/01/24 06:10:59;;;;;;;219.27;166.80;;;0.60;99.90;;;;;;6277920;22;20401;-86
2021/01/24 06:27:00;;;;;;;157.53;144.73;;;0.60;99.90;;;;;;6266142;22;20479;-83
2021/01/24 06:40:02;;;;;;;159.70;154.30;;;0.80;99.90;;;;;;5816597;24;20421;-86
2021/01/24 06:42:53;;;;;;;157.50;152.30;;;0.80;99.90;;;;;;5921815;23;20449;-89
2021/01/24 06:45:40;;;;;;;161.23;155.83;;;0.70;99.90;;;;;;6289604;22;20492;-88
2021/01/24 06:48:18;;;;;;;159.43;154.13;;;0.70;99.90;;;;;;6280009;22;20401;-86
2021/01/24 06:51:00;;;;;;;;;;;;;;;;;;;;;
2021/01/24 06:53:47;;;;;;;161.90;156.50;;;0.70;99.90;;;;;;6280213;22;20486;-84
2021/01/24 06:56:56;;;;;;;;;;;;;;;;;;;;;
2021/01/24 06:59:31;;;;;;;152.05;146.93;;;0.70;99.90;;;;;;6283978;22;20489;-83
2021/01/24 07:02:20;;;;;;;144.40;139.50;;;0.80;99.90;;;;;;6232688;22;20205;-81
2021/01/24 07:05:10;;;;;;;104.50;101.10;;;0.80;99.90;;;;;;6275598;22;20454;-81
2021/01/24 07:07:38;;;;;;;103.22;99.82;;;0.70;99.90;;;;;;6287537;22;20406;-80
2021/01/24 07:10:07;;;;;;;99.68;96.38;;;0.60;99.90;;;;;;6278630;22;20235;-85
2021/01/24 07:13:06;;;;;;;107.47;103.97;;;0.60;99.90;;;;;;6279716;22;20184;-86
2021/01/24 07:15:52;;;;;;;115.83;112.03;;;0.70;99.90;;;;;;6277360;22;20403;-86
2021/01/24 07:18:18;;;;;;;112.90;109.20;;;0.60;99.90;;;;;;6276777;22;20399;-90
2021/01/24 07:20:45;;;;;;;124.80;120.70;;;0.70;99.90;;;;;;6285669;22;20168;-85
2021/01/24 07:23:14;;;;;;;134.90;130.40;;;0.70;99.90;;;;;;6277717;22;20403;-86
2021/01/24 07:25:45;;;;;;;135.77;131.27;;;0.80;99.90;;;;;;6276473;22;20451;-85
2021/01/24 07:28:45;;;;;;;123.43;119.28;;;0.80;99.90;;;;;;6276681;22;20405;-85
2021/01/24 07:31:16;;;;;;;135.53;131.00;;;0.80;99.90;;;;;;6232927;22;20616;-83
2021/01/24 07:33:43;;;;;;;132.90;128.40;;;0.80;99.90;;;;;;6286539;22;20407;-83
2021/01/24 07:36:10;;;;;;;137.30;132.70;;;0.80;99.90;;;;;;6285267;22;20403;-83
2021/01/24 07:38:37;;;;;;;143.53;138.73;;;0.90;99.90;;;;;;6286393;22;20482;-83
2021/01/24 07:41:03;;;;;;;141.30;136.60;;;0.80;99.90;;;;;;6276351;22;20427;-82
2021/01/24 07:43:31;;;;;;;138.97;134.27;;;0.80;99.90;;;;;;6276637;22;20418;-81
2021/01/24 07:45:57;;;;;;;136.80;132.20;;;0.90;99.90;;;;;;6275999;22;20441;-81
2021/01/24 07:48:24;;;;;;;133.15;128.65;;;0.90;99.90;;;;;;6286846;22;20403;-81
2021/01/24 07:50:51;;;;;;;133.40;128.90;;;1.00;99.90;;;;;;6275105;22;20452;-83
2021/01/24 07:53:19;;;;;;;138.30;133.60;;;1.00;99.90;;;;;;6286838;22;20769;-84
2021/01/24 07:55:51;;;;;;;137.60;133.00;;;1.00;99.90;;;;;;6275953;22;20960;-84
2021/01/24 07:58:18;;;;;;;136.23;131.70;;;1.10;99.90;;;;;;6286429;22;20416;-82
2021/01/24 08:00:46;;;;;;;135.10;130.60;;;1.00;99.90;;;;;;6276226;22;20489;-81
2021/01/24 08:03:18;;;;;;;137.93;133.33;;;1.10;99.90;;;;;;6276076;22;20402;-83
2021/01/24 08:05:47;;;;;;;134.10;129.60;;;1.00;99.90;;;;;;6274647;22;20449;-82
2021/01/24 08:08:13;;;;;;;130.63;126.22;;;1.10;99.90;;;;;;6276616;22;20434;-82
2021/01/24 08:10:40;;;;;;;130.48;126.07;;;1.10;99.90;;;;;;6276508;22;20225;-82
2021/01/24 08:13:23;;;;;;;134.70;130.20;;;1.20;99.90;;;;;;6276526;22;20176;-82
2021/01/24 08:15:58;;;;;;;137.30;132.70;;;1.20;99.90;;;;;;6276436;22;20457;-82
2021/01/24 08:18:52;;;;;;;135.30;130.80;;;1.10;99.90;;;;;;6276293;22;20401;-86
2021/01/24 08:21:55;;;;;;;135.73;131.13;;;1.20;99.90;;;;;;6275020;22;20437;-87
2021/01/24 08:59:33;;;;;;;126.80;122.50;;;1.40;99.90;;;;;;5902591;24;20205;-84
2021/01/24 09:02:13;;;;;;;123.97;119.77;;;1.50;99.90;;;;;;5995997;23;20440;-82
2021/01/24 09:04:50;;;;;;;123.80;119.60;;;1.50;99.90;;;;;;6117021;22;20948;-82
2021/01/24 09:07:18;;;;;;;123.73;119.53;;;1.50;99.90;;;;;;6317176;22;20429;-82
2021/01/24 09:09:53;;;;;;;117.78;113.78;;;1.60;99.90;;;;;;6317377;22;20459;-84
2021/01/24 09:12:28;;;;;;;125.90;121.60;;;1.60;99.90;;;;;;6317599;22;20163;-84
2021/01/24 09:15:19;;;;;;;126.20;121.80;;;1.60;99.90;;;;;;6306956;22;20389;-83
2021/01/24 09:18:19;;;;;;;114.63;110.72;;;1.60;99.90;;;;;;6307419;22;21192;-84
2021/01/24 09:20:47;;;;;;;118.00;114.00;;;1.60;99.90;;;;;;6316151;22;20166;-84
2021/01/24 09:23:42;;;;;;;119.23;115.13;;;1.60;99.90;;;;;;6317172;22;20496;-85
2021/01/24 09:26:29;;;;;;;;;;;;;;;;;;;;;
2021/01/24 09:29:00;;;;;;;120.10;116.00;;;1.60;99.90;;;;;;6262961;22;20728;-83
2021/01/24 09:31:27;;;;;;;119.43;115.33;;;1.70;99.90;;;;;;6316628;22;20687;-83
2021/01/24 09:34:00;;;;;;;118.50;114.40;;;1.70;99.90;;;;;;6306710;22;20405;-84
2021/01/24 09:36:41;;;;;;;116.97;112.97;;;1.70;99.90;;;;;;6305665;22;20858;-83
2021/01/24 09:39:12;;;;;;;118.77;114.67;;;1.70;99.90;;;;;;6306976;22;20393;-84
2021/01/24 09:41:45;;;;;;;117.33;113.33;;;1.70;99.90;;;;;;6306833;22;20513;-81
2021/01/24 09:46:57;;;;;;;117.67;113.57;;;1.60;99.90;;;;;;6305834;22;20445;-84
2021/01/24 09:49:25;;;;;;;119.33;115.13;;;1.60;99.90;;;;;;6306813;22;20429;-83
2021/01/24 09:51:55;;;;;;;124.00;119.70;;;1.70;99.90;;;;;;6318654;22;20434;-83
2021/01/24 09:54:32;;;;;;;123.43;119.13;;;1.70;99.90;;;;;;6308181;22;20401;-83
2021/01/24 09:56:59;;;;;;;119.10;114.90;;;1.70;99.90;;;;;;6318426;22;20431;-85
2021/01/24 09:59:28;;;;;;;118.80;114.70;;;1.70;99.90;;;;;;6308580;22;20429;-82
2021/01/24 10:02:00;;;;;;;119.13;114.97;;;1.80;99.90;;;;;;6318285;22;20945;-84
2021/01/24 10:04:44;;;;;;;119.13;114.93;;;1.80;99.90;;;;;;6306585;22;20404;-84
2021/01/24 10:07:10;;;;;;;117.20;113.10;;;1.90;99.90;;;;;;6318035;22;20924;-84
2021/01/24 10:10:20;;;;;;;119.60;115.43;;;1.80;99.90;;;;;;6308343;22;20398;-83
2021/01/24 10:13:06;;;;;;;;;;;;;;;;;;;;;
2021/01/24 10:15:44;;;;;;;115.20;111.10;;;1.90;99.90;;;;;;6316525;22;20559;-83
2021/01/24 10:18:40;;;;;;;111.53;107.63;;;1.90;99.90;;;;;;6308009;22;20721;-84
2021/01/24 10:21:24;;;;;;;117.10;113.00;;;2.00;99.90;;;;;;6307096;22;20183;-84
2021/01/24 10:24:25;;;;;;;;;;;;;;;;;;;;;
2021/01/24 10:27:14;;;;;;;110.70;106.80;;;2.00;99.90;;;;;;6317826;22;20440;-83
2021/01/24 10:33:18;;;;;;;110.85;106.95;;;2.20;99.90;;;;;;6185443;23;20440;-84
2021/01/24 10:58:10;;;;;;;111.20;107.30;;;2.20;99.90;;;;;;6009901;23;20175;-82
2021/01/24 11:00:45;;;;;;;116.20;112.10;;;2.30;99.90;;;;;;6040068;23;20183;-82
2021/01/24 11:03:26;;;;;;;113.30;109.30;;;2.30;99.90;;;;;;6075156;23;20455;-83
2021/01/24 11:22:50;;;;;;;;;;;;;;;;;;;;;
2021/01/24 11:53:42;;;;;;;92.43;89.13;;;3.10;99.90;;;;;;5946824;23;20738;-85
2021/01/24 12:06:39;;;;;;;;;;;;;;;;;;;;;
2021/01/24 12:09:38;;;;;;;;;;;;;;;;;;;;;
2021/01/24 12:13:03;;;;;;;;;;;;;;;;;;;;;
2021/01/24 12:19:27;;;;;;;79.93;77.13;;;4.50;99.90;;;;;;6021822;23;20413;-85
2021/01/24 12:25:16;;;;;;;;;;;;;;;;;;;;;
2021/01/24 12:31:22;;;;;;;;;;;;;;;;;;;;;
2021/01/24 12:34:16;;;;;;;70.27;67.77;;;5.20;99.90;;;;;;6181579;23;20407;-82
2021/01/24 12:37:09;;;;;;;;;;;;;;;;;;;;;
2021/01/24 12:40:25;;;;;;;;;;;;;;;;;;;;;
2021/01/24 12:43:31;;;;;;;52.05;50.15;;;5.40;99.90;;;;;;6299734;22;20413;-82
2021/01/24 12:46:09;;;;;;;49.70;47.80;;;5.40;99.90;;;;;;6305677;22;20512;-82
2021/01/24 12:49:03;;;;;;;42.70;41.10;;;5.70;99.90;;;;;;6317137;22;20404;-83
2021/01/24 12:52:10;;;;;;;39.77;38.27;;;5.40;99.90;;;;;;6160971;23;20973;-83
2021/01/24 12:54:56;;;;;;;36.43;35.03;;;5.30;99.90;;;;;;6110240;23;20986;-83
2021/01/24 12:58:03;;;;;;;;;;;;;;;;;;;;;
2021/01/24 13:00:35;;;;;;;29.10;27.90;;;5.70;99.90;;;;;;6117482;23;20417;-83
2021/01/24 13:03:17;;;;;;;29.63;28.43;;;5.90;99.90;;;;;;6191891;23;20504;-82
2021/01/24 13:09:14;;;;;;;21.40;20.50;;;5.90;99.90;;;;;;6305321;22;20430;-83
2021/01/24 13:12:35;;;;;;;20.60;19.70;;;5.60;99.90;;;;;;6307901;22;20886;-83
2021/01/24 13:15:20;;;;;;;;;;;;;;;;;;;;;
2021/01/24 13:18:04;;;;;;;17.17;16.37;;;5.50;99.90;;;;;;6129608;23;20477;-83
2021/01/24 13:21:00;;;;;;;;;;;;;;;;;;;;;
2021/01/24 13:24:01;;;;;;;15.53;14.83;;;5.30;99.90;;;;;;6307428;22;20430;-83
2021/01/24 13:30:38;;;;;;;;;;;;;;;;;;;;;
2021/01/24 13:39:45;;;;;;;12.87;12.17;;;4.60;99.90;;;;;;6043165;23;20200;-83
2021/01/24 13:42:23;;;;;;;13.10;12.40;;;4.40;99.90;;;;;;6207949;23;20424;-83
2021/01/24 13:48:11;;;;;;;16.93;15.93;;;3.50;99.90;;;;;;6213477;23;20899;-85
2021/01/24 13:50:48;;;;;;;14.70;14.00;;;3.20;99.90;;;;;;6222047;22;20420;-84
2021/01/24 13:53:37;;;;;;;14.90;14.20;;;3.00;99.90;;;;;;6223060;23;20471;-84
2021/01/24 14:00:01;;;;;;;15.50;14.80;;;2.80;99.90;;;;;;6084720;23;20423;-85
2021/01/24 14:15:59;;;;;;;;;;;;;;;;;;;;;
2021/01/24 14:18:55;;;;;;;;;;;;;;;;;;;;;
2021/01/24 14:25:36;;;;;;;19.37;18.57;;;2.10;99.90;;;;;;6149327;23;20424;-84
2021/01/24 14:28:56;;;;;;;18.90;18.10;;;2.00;99.90;;;;;;6123900;23;20832;-83
2021/01/24 14:34:55;;;;;;;20.95;20.05;;;2.10;99.90;;;;;;6037712;23;20810;-84
2021/01/24 14:41:32;;;;;;;20.27;19.37;;;2.10;99.90;;;;;;5948639;23;20416;-83
2021/01/24 14:45:09;;;;;;;;;;;;;;;;;;;;;
2021/01/24 14:51:31;;;;;;;;;;;;;;;;;;;;;
2021/01/24 14:58:08;;;;;;;19.83;19.00;;;2.10;99.90;;;;;;6179411;23;20525;-84
2021/01/24 15:01:19;;;;;;;21.63;20.73;;;2.10;99.90;;;;;;6182871;23;20912;-84
2021/01/24 15:30:01;;;;;;;24.17;23.17;;;1.50;99.90;;;;;;6015076;23;20949;-84
2021/01/24 15:35:58;;;;;;;25.27;24.27;;;1.30;99.90;;;;;;6034040;23;20173;-84
2021/01/24 15:45:56;;;;;;;25.13;24.13;;;1.20;99.90;;;;;;6026574;23;20615;-84
2021/01/24 15:55:08;;;;;;;25.47;24.47;;;1.00;99.90;;;;;;5959263;24;20171;-83
2021/01/24 16:01:46;;;;;;;;;;;;;;;;;;;;;
2021/01/24 16:04:14;;;;;;;25.17;24.17;;;0.90;99.90;;;;;;6186365;22;20456;-85
2021/01/24 16:10:24;;;;;;;;;;;;;;;;;;;;;
2021/01/24 16:16:40;;;;;;;27.13;26.03;;;0.80;99.90;;;;;;6143158;23;20761;-84
2021/01/24 16:22:50;;;;;;;;;;;;;;;;;;;;;
2021/01/24 16:29:25;;;;;;;28.47;27.37;;;0.60;99.90;;;;;;5986370;23;20504;-84
2021/01/24 16:32:05;;;;;;;;;;;;;;;;;;;;;
2021/01/24 16:35:31;;;;;;;;;;;;;;;;;;;;;
2021/01/24 17:16:24;;;;;;;;;;;;;;;;;;;;;
2021/01/24 17:32:09;;;;;;;;;;;;;;;;;;;;;
2021/01/24 17:53:51;;;;;;;32.97;31.67;;;0.70;99.90;;;;;;5980920;24;20450;-83
2021/01/24 17:56:31;;;;;;;31.20;30.00;;;0.80;99.90;;;;;;6002289;23;20427;-82
2021/01/24 17:58:59;;;;;;;31.90;30.70;;;0.80;99.90;;;;;;6075368;23;20168;-82
2021/01/24 18:01:50;;;;;;;33.13;31.83;;;0.90;99.90;;;;;;6076088;23;20408;-83
2021/01/24 18:08:33;;;;;;;30.90;29.70;;;0.80;99.90;;;;;;6261726;22;20199;-85
